createdAt,value
2019-04-19T00:02:15.872Z,99.90
2019-04-19T00:04:51.553Z,99.90
2019-04-19T00:07:21.486Z,99.90
2019-04-19T00:09:57.357Z,99.90
2019-04-19T00:12:34.509Z,99.90
2019-04-19T00:14:52.684Z,99.90
2019-04-19T00:17:25.180Z,99.90
2019-04-19T00:20:21.160Z,99.90
2019-04-19T00:22:38.651Z,99.90
2019-04-19T00:24:56.596Z,99.90
2019-04-19T00:27:31.948Z,99.90
2019-04-19T00:30:04.311Z,99.90
2019-04-19T00:32:42.992Z,99.90
2019-04-19T00:34:59.354Z,99.90
2019-04-19T00:37:29.051Z,99.90
2019-04-19T00:40:19.986Z,99.90
2019-04-19T00:42:57.202Z,99.90
2019-04-19T00:46:01.169Z,99.90
2019-04-19T00:48:32.951Z,99.90
2019-04-19T00:50:57.866Z,99.90
2019-04-19T00:53:25.191Z,99.90
2019-04-19T00:55:55.013Z,99.90
2019-04-19T00:58:23.597Z,99.90
2019-04-19T01:00:49.092Z,99.90
2019-04-19T01:03:26.562Z,99.90
2019-04-19T01:05:56.957Z,99.90
2019-04-19T01:08:24.045Z,99.90
2019-04-19T01:11:07.877Z,99.90
2019-04-19T01:13:37.838Z,99.90
2019-04-19T01:16:07.776Z,99.90
2019-04-19T01:18:41.158Z,99.90
2019-04-19T01:20:56.996Z,99.90
2019-04-19T01:23:26.918Z,99.90
2019-04-19T01:26:02.964Z,99.90
2019-04-19T01:28:29.299Z,99.90
2019-04-19T01:30:59.068Z,99.90
2019-04-19T01:33:37.337Z,99.90
2019-04-19T01:36:04.276Z,99.90
2019-04-19T01:38:40.956Z,99.90
2019-04-19T01:41:21.066Z,99.90
2019-04-19T01:43:56.342Z,99.90
2019-04-19T01:46:51.189Z,99.90
2019-04-19T01:49:40.005Z,99.90
2019-04-19T01:52:42.009Z,99.90
2019-04-19T01:54:54.434Z,99.90
2019-04-19T01:57:17.371Z,99.90
2019-04-19T01:59:50.803Z,99.90
2019-04-19T02:02:21.309Z,99.90
2019-04-19T02:04:53.022Z,99.90
2019-04-19T02:07:25.021Z,99.90
2019-04-19T02:10:04.016Z,99.90
2019-04-19T02:12:34.615Z,99.90
2019-04-19T02:14:59.516Z,99.90
2019-04-19T02:17:27.627Z,99.90
2019-04-19T02:20:00.567Z,99.90
2019-04-19T02:22:32.762Z,99.90
2019-04-19T02:25:00.449Z,99.90
2019-04-19T02:27:34.073Z,99.90
2019-04-19T02:30:09.539Z,99.90
2019-04-19T02:32:46.493Z,99.90
2019-04-19T02:35:26.351Z,99.90
2019-04-19T02:37:57.583Z,99.90
2019-04-19T02:42:59.711Z,99.90
2019-04-19T02:45:33.496Z,99.90
2019-04-19T02:48:03.716Z,99.90
2019-04-19T02:51:02.378Z,99.90
2019-04-19T02:53:12.511Z,99.90
2019-04-19T02:55:40.899Z,99.90
2019-04-19T02:58:15.447Z,99.90
2019-04-19T03:01:03.660Z,99.90
2019-04-19T03:03:27.477Z,99.90
2019-04-19T03:05:55.714Z,99.90
2019-04-19T03:08:08.418Z,99.90
2019-04-19T03:10:54.861Z,99.90
2019-04-19T03:13:25.558Z,99.90
2019-04-19T03:15:54.789Z,99.90
2019-04-19T03:18:30.655Z,99.90
2019-04-19T03:20:55.545Z,99.90
2019-04-19T03:23:26.348Z,99.90
2019-04-19T03:25:54.597Z,99.90
2019-04-19T03:28:26.130Z,99.90
2019-04-19T03:31:18.678Z,99.90
2019-04-19T03:36:05.305Z,99.90
2019-04-19T03:38:40.461Z,99.90
2019-04-19T03:41:27.350Z,99.90
2019-04-19T03:43:48.899Z,99.90
2019-04-19T03:46:28.455Z,99.90
2019-04-19T03:48:48.751Z,99.90
2019-04-19T03:51:18.487Z,99.90
2019-04-19T03:56:23.340Z,99.90
2019-04-19T03:58:35.549Z,99.90
2019-04-19T04:01:06.525Z,99.90
2019-04-19T04:03:40.845Z,99.90
2019-04-19T04:06:08.303Z,99.90
2019-04-19T04:08:46.100Z,99.90
2019-04-19T04:11:29.951Z,99.90
2019-04-19T04:14:29.139Z,99.90
2019-04-19T04:17:05.815Z,99.90
2019-04-19T04:19:35.639Z,99.90
2019-04-19T04:22:07.632Z,99.90
2019-04-19T04:24:44.893Z,99.90
2019-04-19T04:27:14.813Z,99.90
2019-04-19T04:29:44.557Z,99.90
2019-04-19T04:32:17.830Z,99.90
2019-04-19T04:34:49.681Z,99.90
2019-04-19T04:37:24.776Z,99.90
2019-04-19T04:39:43.059Z,99.90
2019-04-19T04:42:22.331Z,99.90
2019-04-19T04:45:09.302Z,99.90
2019-04-19T04:47:53.820Z,99.90
2019-04-19T04:51:00.517Z,99.90
2019-04-19T04:53:17.355Z,99.90
2019-04-19T04:55:56.987Z,99.90
2019-04-19T04:58:26.740Z,99.90
2019-04-19T05:01:00.077Z,99.90
2019-04-19T05:03:46.512Z,99.90
2019-04-19T05:06:11.108Z,99.90
2019-04-19T05:08:45.143Z,99.90
2019-04-19T05:11:18.861Z,99.90
2019-04-19T05:13:51.184Z,99.90
2019-04-19T05:16:28.729Z,99.90
2019-04-19T05:18:45.312Z,99.90
2019-04-19T05:21:17.967Z,99.90
2019-04-19T05:23:55.536Z,99.90
2019-04-19T05:26:33.764Z,99.90
2019-04-19T05:28:50.182Z,99.90
2019-04-19T05:31:08.980Z,99.90
2019-04-19T05:33:47.463Z,99.90
2019-04-19T05:36:27.869Z,99.90
2019-04-19T05:39:08.976Z,99.90
2019-04-19T05:41:41.668Z,99.90
2019-04-19T05:46:55.843Z,99.90
2019-04-19T05:49:22.004Z,99.90
2019-04-19T05:51:53.902Z,99.40
2019-04-19T05:54:09.728Z,90.50
2019-04-19T05:56:43.555Z,76.20
2019-04-19T05:59:15.998Z,67.30
2019-04-19T06:01:56.496Z,58.90
2019-04-19T06:04:26.138Z,56.80
2019-04-19T06:07:05.096Z,53.90
2019-04-19T06:09:13.078Z,51.50
2019-04-19T06:11:44.687Z,49.60
2019-04-19T06:14:40.876Z,48.40
2019-04-19T06:17:22.945Z,47.20
2019-04-19T06:19:51.633Z,46.30
2019-04-19T06:22:18.793Z,45.60
2019-04-19T06:24:57.039Z,44.00
2019-04-19T06:27:35.620Z,43.60
2019-04-19T06:30:05.855Z,43.00
2019-04-19T06:32:33.685Z,42.70
2019-04-19T06:34:54.174Z,42.00
2019-04-19T06:37:19.377Z,41.40
2019-04-19T06:39:45.886Z,40.50
2019-04-19T06:42:16.951Z,39.90
2019-04-19T06:45:07.715Z,39.60
2019-04-19T06:47:25.802Z,39.40
2019-04-19T06:49:51.351Z,35.10
2019-04-19T06:52:24.785Z,35.50
2019-04-19T06:54:51.723Z,34.40
2019-04-19T06:57:27.275Z,35.30
2019-04-19T07:00:06.085Z,33.70
2019-04-19T07:02:24.187Z,36.00
2019-04-19T07:05:08.841Z,36.00
2019-04-19T07:07:42.106Z,37.10
2019-04-19T07:10:27.710Z,36.50
2019-04-19T07:12:50.459Z,38.10
2019-04-19T07:15:25.978Z,35.50
2019-04-19T07:17:42.283Z,36.30
2019-04-19T07:20:14.870Z,37.10
2019-04-19T07:22:47.015Z,38.20
2019-04-19T07:25:31.779Z,38.00
2019-04-19T07:27:45.650Z,40.40
2019-04-19T07:30:07.283Z,40.20
2019-04-19T07:32:43.864Z,40.70
2019-04-19T07:35:29.691Z,39.80
2019-04-19T07:37:58.690Z,40.80
2019-04-19T07:40:31.522Z,42.20
2019-04-19T07:43:03.628Z,42.40
2019-04-19T07:46:02.894Z,40.40
2019-04-19T07:48:34.607Z,40.60
2019-04-19T07:51:12.962Z,38.20
2019-04-19T07:53:40.645Z,33.90
2019-04-19T07:56:17.624Z,34.80
2019-04-19T08:06:53.873Z,36.60
2019-04-19T08:14:17.450Z,33.80
2019-04-19T08:29:05.218Z,35.50
2019-04-19T08:31:23.189Z,36.60
2019-04-19T08:33:53.253Z,36.50
2019-04-19T08:36:28.748Z,36.30
2019-04-19T08:39:14.060Z,35.60
2019-04-19T08:41:39.431Z,36.10
2019-04-19T08:44:16.376Z,34.40
2019-04-19T08:46:32.629Z,33.40
2019-04-19T08:49:23.807Z,33.40
2019-04-19T08:51:46.817Z,33.80
2019-04-19T08:54:36.769Z,34.00
2019-04-19T08:56:54.509Z,34.30
2019-04-19T08:59:44.347Z,34.90
2019-04-19T09:02:10.765Z,32.70
2019-04-19T09:04:39.788Z,32.60
2019-04-19T09:07:43.425Z,32.00
2019-04-19T09:10:00.064Z,32.80
2019-04-19T09:12:12.258Z,32.90
2019-04-19T09:14:50.033Z,34.30
2019-04-19T09:17:20.820Z,34.60
2019-04-19T09:20:28.060Z,33.00
2019-04-19T09:22:21.165Z,33.90
2019-04-19T09:24:57.148Z,32.80
2019-04-19T09:27:41.742Z,34.30
2019-04-19T09:30:11.521Z,32.30
2019-04-19T09:32:31.226Z,33.50
2019-04-19T09:35:01.809Z,32.50
2019-04-19T09:37:41.615Z,33.10
2019-04-19T09:40:06.267Z,35.00
2019-04-19T09:42:44.731Z,33.10
2019-04-19T09:45:03.716Z,32.60
2019-04-19T09:47:33.244Z,32.60
2019-04-19T09:50:15.629Z,33.20
2019-04-19T09:52:55.592Z,33.70
2019-04-19T09:55:26.651Z,34.10
2019-04-19T09:58:00.046Z,33.50
2019-04-19T10:00:17.437Z,32.80
2019-04-19T10:02:47.101Z,33.30
2019-04-19T10:05:12.737Z,33.10
2019-04-19T10:07:42.985Z,33.30
2019-04-19T10:10:14.788Z,33.00
2019-04-19T10:12:43.773Z,33.70
2019-04-19T10:15:38.443Z,33.80
2019-04-19T10:18:07.928Z,33.20
2019-04-19T10:20:49.346Z,33.60
2019-04-19T10:23:19.705Z,32.10
2019-04-19T10:25:55.963Z,32.70
2019-04-19T10:28:23.686Z,31.10
2019-04-19T10:31:11.525Z,34.70
2019-04-19T10:33:50.129Z,32.40
2019-04-19T10:36:12.779Z,32.40
2019-04-19T10:38:43.410Z,31.60
2019-04-19T10:41:13.693Z,32.60
2019-04-19T10:43:43.338Z,31.50
2019-04-19T10:46:13.134Z,32.00
2019-04-19T10:48:55.564Z,33.10
2019-04-19T10:51:33.356Z,33.30
2019-04-19T10:54:02.865Z,32.70
2019-04-19T10:56:54.374Z,33.40
2019-04-19T10:59:24.706Z,33.70
2019-04-19T11:01:54.249Z,32.10
2019-04-19T11:04:24.714Z,33.30
2019-04-19T11:06:55.728Z,31.20
2019-04-19T11:09:25.206Z,31.60
2019-04-19T11:11:55.348Z,32.90
2019-04-19T11:14:25.902Z,31.60
2019-04-19T11:16:55.711Z,31.20
2019-04-19T11:19:44.656Z,32.00
2019-04-19T11:21:56.708Z,31.80
2019-04-19T11:24:26.137Z,31.00
2019-04-19T11:26:57.014Z,29.80
2019-04-19T11:29:26.515Z,29.40
2019-04-19T11:32:06.038Z,30.50
2019-04-19T11:34:36.003Z,29.70
2019-04-19T11:37:05.489Z,30.70
2019-04-19T11:39:35.040Z,30.80
2019-04-19T11:42:05.322Z,29.70
2019-04-19T11:44:35.838Z,30.00
2019-04-19T11:47:06.805Z,32.40
2019-04-19T11:49:40.231Z,31.20
2019-04-19T11:52:11.238Z,31.20
2019-04-19T11:54:40.693Z,28.90
2019-04-19T11:57:18.759Z,30.00
2019-04-19T12:00:06.173Z,28.70
2019-04-19T12:02:46.240Z,29.80
2019-04-19T12:05:22.861Z,30.50
2019-04-19T12:07:48.255Z,30.00
2019-04-19T12:10:18.753Z,29.50
2019-04-19T12:12:48.784Z,29.50
2019-04-19T12:15:19.807Z,29.50
2019-04-19T12:17:50.390Z,29.90
2019-04-19T12:20:21.298Z,30.40
2019-04-19T12:22:51.592Z,29.60
2019-04-19T12:25:21.580Z,29.30
2019-04-19T12:27:51.904Z,30.80
2019-04-19T12:30:23.078Z,30.10
2019-04-19T12:32:55.394Z,29.40
2019-04-19T12:35:25.272Z,29.10
2019-04-19T12:37:57.466Z,29.50
2019-04-19T12:40:26.002Z,29.20
2019-04-19T12:42:56.090Z,28.90
2019-04-19T12:45:26.220Z,29.00
2019-04-19T12:48:14.885Z,30.10
2019-04-19T12:50:45.117Z,28.90
2019-04-19T12:53:14.892Z,28.80
2019-04-19T12:55:46.135Z,29.10
2019-04-19T12:58:17.382Z,28.40
2019-04-19T13:01:05.887Z,28.90
2019-04-19T13:04:12.987Z,28.90
2019-04-19T13:07:02.145Z,29.30
2019-04-19T13:09:32.948Z,29.30
2019-04-19T13:12:03.130Z,28.50
2019-04-19T13:14:33.389Z,29.00
2019-04-19T13:17:04.133Z,29.70
2019-04-19T13:19:33.814Z,29.40
2019-04-19T13:22:03.260Z,28.60
2019-04-19T13:24:32.718Z,29.00
2019-04-19T13:27:03.183Z,28.90
2019-04-19T13:29:33.533Z,28.80
2019-04-19T13:32:03.792Z,29.90
2019-04-19T13:34:33.521Z,30.00
2019-04-19T13:37:19.392Z,31.30
2019-04-19T13:40:04.045Z,29.30
2019-04-19T13:42:37.153Z,30.00
2019-04-19T13:45:17.881Z,29.10
2019-04-19T13:47:40.713Z,29.70
2019-04-19T13:50:21.388Z,28.50
2019-04-19T13:52:44.264Z,29.30
2019-04-19T13:55:14.812Z,30.70
2019-04-19T13:57:44.318Z,30.30
2019-04-19T14:00:20.450Z,29.60
2019-04-19T14:02:49.925Z,30.30
2019-04-19T14:05:19.820Z,30.10
2019-04-19T14:07:49.346Z,30.50
2019-04-19T14:10:19.118Z,30.00
2019-04-19T14:12:49.229Z,31.20
2019-04-19T14:15:18.693Z,31.00
2019-04-19T14:17:48.190Z,31.20
2019-04-19T14:20:27.609Z,30.80
2019-04-19T14:22:49.699Z,31.40
2019-04-19T14:25:21.110Z,30.10
2019-04-19T14:27:51.232Z,31.60
2019-04-19T14:30:21.492Z,31.50
2019-04-19T14:32:50.955Z,30.50
2019-04-19T14:35:21.691Z,30.50
2019-04-19T14:37:52.026Z,30.00
2019-04-19T14:40:23.748Z,30.40
2019-04-19T14:42:54.169Z,30.50
2019-04-19T14:45:28.188Z,30.50
2019-04-19T14:47:57.715Z,31.20
2019-04-19T14:50:40.317Z,30.90
2019-04-19T14:52:59.469Z,31.10
2019-04-19T14:55:29.775Z,31.00
2019-04-19T14:57:59.301Z,29.90
2019-04-19T15:00:30.617Z,31.00
2019-04-19T15:03:09.294Z,30.80
2019-04-19T15:05:41.642Z,30.40
2019-04-19T15:08:11.127Z,30.80
2019-04-19T15:10:41.757Z,30.90
2019-04-19T15:13:12.570Z,32.70
2019-04-19T15:15:43.559Z,31.20
2019-04-19T15:18:13.212Z,31.00
2019-04-19T15:20:53.916Z,31.30
2019-04-19T15:23:14.222Z,31.10
2019-04-19T15:25:44.595Z,31.50
2019-04-19T15:28:15.095Z,31.10
2019-04-19T15:30:45.993Z,30.40
2019-04-19T15:33:16.377Z,32.40
2019-04-19T15:35:45.965Z,32.20
2019-04-19T15:38:16.086Z,32.20
2019-04-19T15:40:45.873Z,30.10
2019-04-19T15:43:15.562Z,31.40
2019-04-19T15:45:45.440Z,31.90
2019-04-19T15:48:26.710Z,32.70
2019-04-19T15:50:47.600Z,32.70
2019-04-19T15:53:18.112Z,31.80
2019-04-19T15:55:48.568Z,31.50
2019-04-19T15:58:18.178Z,32.70
2019-04-19T16:00:58.510Z,32.90
2019-04-19T16:04:05.911Z,34.10
2019-04-19T16:06:43.855Z,32.80
2019-04-19T16:09:33.247Z,34.00
2019-04-19T16:12:08.085Z,34.00
2019-04-19T16:14:37.935Z,34.20
2019-04-19T16:17:07.795Z,34.60
2019-04-19T16:19:39.943Z,34.10
2019-04-19T16:22:08.935Z,34.00
2019-04-19T16:24:39.023Z,34.90
2019-04-19T16:27:08.958Z,35.30
2019-04-19T16:29:45.802Z,35.00
2019-04-19T16:32:10.013Z,35.00
2019-04-19T16:34:39.475Z,35.60
2019-04-19T16:37:08.891Z,34.90
2019-04-19T16:39:39.886Z,35.00
2019-04-19T16:42:09.363Z,35.00
2019-04-19T16:44:38.777Z,35.30
2019-04-19T16:47:09.059Z,35.60
2019-04-19T16:49:38.910Z,35.70
2019-04-19T16:52:08.865Z,35.80
2019-04-19T16:54:38.452Z,35.30
2019-04-19T16:57:16.794Z,35.80
2019-04-19T16:59:39.719Z,36.50
2019-04-19T17:02:10.922Z,35.30
2019-04-19T17:04:40.864Z,35.00
2019-04-19T17:07:10.458Z,35.50
2019-04-19T17:09:40.822Z,35.60
2019-04-19T17:12:10.449Z,34.80
2019-04-19T17:14:41.011Z,34.70
2019-04-19T17:17:18.445Z,35.50
2019-04-19T17:19:52.926Z,36.10
2019-04-19T17:22:36.792Z,37.00
2019-04-19T17:25:09.217Z,36.50
2019-04-19T17:27:39.278Z,37.00
2019-04-19T17:30:12.691Z,37.30
2019-04-19T17:32:42.287Z,37.80
2019-04-19T17:35:12.299Z,38.00
2019-04-19T17:37:42.361Z,38.50
2019-04-19T17:40:12.145Z,38.30
2019-04-19T17:42:42.372Z,39.10
2019-04-19T17:45:13.536Z,39.10
2019-04-19T17:47:44.503Z,39.90
2019-04-19T17:50:14.561Z,40.40
2019-04-19T17:52:44.390Z,40.40
2019-04-19T17:55:25.069Z,40.70
2019-04-19T17:57:45.378Z,40.90
2019-04-19T18:00:16.425Z,41.50
2019-04-19T18:02:46.851Z,41.50
2019-04-19T18:05:16.428Z,41.70
2019-04-19T18:07:50.064Z,41.70
2019-04-19T18:10:20.317Z,42.00
2019-04-19T18:12:49.535Z,41.80
2019-04-19T18:15:19.698Z,42.00
2019-04-19T18:17:56.550Z,42.30
2019-04-19T18:20:22.958Z,42.20
2019-04-19T18:23:01.958Z,42.00
2019-04-19T18:25:27.448Z,42.80
2019-04-19T18:27:57.168Z,42.30
2019-04-19T18:30:26.321Z,42.10
2019-04-19T18:33:08.645Z,42.40
2019-04-19T18:35:39.196Z,42.60
2019-04-19T18:38:15.618Z,42.70
2019-04-19T18:40:40.209Z,42.80
2019-04-19T18:43:22.242Z,43.00
2019-04-19T18:45:42.375Z,43.20
2019-04-19T18:48:13.437Z,43.30
2019-04-19T18:50:47.977Z,44.20
2019-04-19T18:53:22.928Z,44.40
2019-04-19T18:55:48.565Z,44.20
2019-04-19T18:58:21.294Z,44.40
2019-04-19T19:00:49.971Z,45.30
2019-04-19T19:03:19.580Z,44.90
2019-04-19T19:05:55.661Z,45.10
2019-04-19T19:08:25.755Z,45.60
2019-04-19T19:10:53.659Z,45.60
2019-04-19T19:13:28.857Z,46.00
2019-04-19T19:15:57.584Z,45.90
2019-04-19T19:18:32.442Z,46.20
2019-04-19T19:21:00.156Z,46.70
2019-04-19T19:23:43.273Z,46.60
2019-04-19T19:26:12.117Z,46.80
2019-04-19T19:28:31.640Z,46.90
2019-04-19T19:31:03.192Z,46.90
2019-04-19T19:33:39.103Z,47.00
2019-04-19T19:36:05.022Z,47.20
2019-04-19T19:38:38.202Z,47.50
2019-04-19T19:41:24.328Z,47.60
2019-04-19T19:43:50.862Z,47.80
2019-04-19T19:46:34.288Z,48.00
2019-04-19T19:49:18.708Z,48.30
2019-04-19T19:51:28.256Z,48.70
2019-04-19T19:54:29.799Z,48.90
2019-04-19T19:56:43.350Z,49.30
2019-04-19T19:59:06.452Z,49.50
2019-04-19T20:01:32.956Z,49.60
2019-04-19T20:03:54.463Z,49.30
2019-04-19T20:06:27.607Z,50.00
2019-04-19T20:08:57.460Z,50.30
2019-04-19T20:11:30.899Z,50.70
2019-04-19T20:14:01.020Z,51.00
2019-04-19T20:16:31.570Z,51.30
2019-04-19T20:19:02.094Z,51.80
2019-04-19T20:21:32.397Z,52.50
2019-04-19T20:24:12.819Z,52.70
2019-04-19T20:26:40.690Z,53.00
2019-04-19T20:29:11.551Z,53.20
2019-04-19T20:31:37.922Z,53.60
2019-04-19T20:34:07.176Z,54.00
2019-04-19T20:36:40.467Z,54.40
2019-04-19T20:39:09.455Z,55.30
2019-04-19T20:41:45.732Z,55.40
2019-04-19T20:44:27.388Z,55.90
2019-04-19T20:46:42.177Z,56.40
2019-04-19T20:49:13.345Z,57.00
2019-04-19T20:51:56.822Z,57.50
2019-04-19T20:54:44.614Z,58.90
2019-04-19T20:57:27.221Z,58.90
2019-04-19T20:59:45.575Z,59.50
2019-04-19T21:02:17.409Z,59.90
2019-04-19T21:04:49.163Z,60.90
2019-04-19T21:07:15.324Z,62.00
2019-04-19T21:09:43.418Z,62.60
2019-04-19T21:12:17.070Z,63.40
2019-04-19T21:14:45.841Z,64.10
2019-04-19T21:17:16.494Z,65.20
2019-04-19T21:19:48.753Z,65.80
2019-04-19T21:22:23.766Z,66.50
2019-04-19T21:25:04.262Z,67.30
2019-04-19T21:27:25.815Z,67.40
2019-04-19T21:29:52.150Z,68.90
2019-04-19T21:32:27.691Z,71.20
2019-04-19T21:34:52.853Z,71.50
2019-04-19T21:37:31.192Z,72.10
2019-04-19T21:39:55.858Z,72.90
2019-04-19T21:42:25.616Z,73.90
2019-04-19T21:45:00.781Z,74.70
2019-04-19T21:47:28.153Z,75.30
2019-04-19T21:50:00.116Z,75.70
2019-04-19T21:52:29.109Z,76.50
2019-04-19T21:55:14.640Z,77.70
2019-04-19T21:57:33.164Z,79.60
2019-04-19T22:00:05.309Z,81.20
2019-04-19T22:02:38.650Z,82.00
2019-04-19T22:05:06.042Z,83.80
2019-04-19T22:07:39.196Z,84.60
2019-04-19T22:10:05.809Z,86.30
2019-04-19T22:12:36.525Z,87.60
2019-04-19T22:15:10.083Z,89.70
2019-04-19T22:17:38.057Z,90.70
2019-04-19T22:20:12.690Z,91.30
2019-04-19T22:22:38.985Z,92.00
2019-04-19T22:25:11.971Z,92.60
2019-04-19T22:27:39.492Z,93.10
2019-04-19T22:30:09.674Z,93.50
2019-04-19T22:32:46.495Z,94.10
2019-04-19T22:35:16.629Z,94.80
2019-04-19T22:37:43.146Z,95.40
2019-04-19T22:40:12.895Z,96.00
2019-04-19T22:42:51.389Z,97.00
2019-04-19T22:45:16.403Z,97.40
2019-04-19T22:47:45.934Z,97.90
2019-04-19T22:50:21.015Z,98.60
2019-04-19T22:52:47.117Z,99.70
2019-04-19T22:55:18.250Z,99.90
2019-04-19T22:57:54.313Z,99.90
2019-04-19T23:00:19.360Z,99.90
2019-04-19T23:03:28.579Z,99.90
2019-04-19T23:05:54.812Z,99.90
2019-04-19T23:08:31.591Z,99.90
2019-04-19T23:11:00.164Z,99.90
2019-04-19T23:13:27.437Z,99.90
2019-04-19T23:16:02.648Z,99.90
2019-04-19T23:18:29.396Z,99.90
2019-04-19T23:21:05.534Z,99.90
2019-04-19T23:23:34.122Z,99.90
2019-04-19T23:26:19.424Z,99.90
2019-04-19T23:28:36.621Z,99.90
2019-04-19T23:31:09.345Z,99.90
2019-04-19T23:33:34.913Z,99.90
2019-04-19T23:36:12.895Z,99.90
2019-04-19T23:38:35.387Z,99.90
2019-04-19T23:41:04.805Z,99.90
2019-04-19T23:43:37.763Z,99.90
2019-04-19T23:46:08.551Z,99.90
2019-04-19T23:48:37.340Z,99.90
2019-04-19T23:51:08.399Z,99.90
2019-04-19T23:53:42.616Z,99.90
2019-04-19T23:56:19.894Z,99.90
2019-04-19T23:58:42.455Z,99.90
